createdAt,value
2022-12-17T00:05:33.291Z,6.70
2022-12-17T00:11:53.691Z,6.80
2022-12-17T00:18:24.439Z,6.70
2022-12-17T00:24:45.156Z,6.60
2022-12-17T00:31:12.088Z,6.70
2022-12-17T00:37:33.317Z,6.60
2022-12-17T00:43:53.941Z,6.70
2022-12-17T00:50:17.026Z,6.60
2022-12-17T00:56:37.685Z,6.50
2022-12-17T01:02:59.536Z,6.50
2022-12-17T01:09:20.318Z,6.40
2022-12-17T01:15:42.061Z,6.30
2022-12-17T01:22:04.244Z,6.10
2022-12-17T01:28:25.074Z,6.10
2022-12-17T01:34:46.364Z,6.00
2022-12-17T01:41:14.744Z,6.00
2022-12-17T01:47:36.289Z,5.90
2022-12-17T01:54:05.693Z,5.90
2022-12-17T02:00:29.629Z,5.80
2022-12-17T02:06:56.979Z,5.70
2022-12-17T02:13:27.188Z,5.70
2022-12-17T02:20:06.631Z,5.60
2022-12-17T02:26:54.098Z,5.50
2022-12-17T02:33:14.973Z,5.40
2022-12-17T02:39:39.978Z,5.30
2022-12-17T02:46:01.745Z,5.30
2022-12-17T02:52:23.704Z,5.40
2022-12-17T02:58:44.433Z,5.40
2022-12-17T03:05:35.560Z,5.40
2022-12-17T03:11:49.114Z,5.40
2022-12-17T03:18:09.739Z,5.40
2022-12-17T03:24:30.730Z,5.40
2022-12-17T03:30:51.611Z,5.40
2022-12-17T03:37:12.171Z,5.50
2022-12-17T03:43:33.147Z,5.40
2022-12-17T03:49:54.410Z,5.50
2022-12-17T03:56:14.859Z,5.50
2022-12-17T04:02:35.585Z,5.40
2022-12-17T04:08:56.656Z,5.30
2022-12-17T04:15:17.571Z,5.30
2022-12-17T04:21:38.551Z,5.30
2022-12-17T04:27:59.609Z,5.20
2022-12-17T04:34:22.852Z,5.20
2022-12-17T04:40:43.580Z,5.20
2022-12-17T04:47:11.840Z,5.00
2022-12-17T04:53:32.798Z,4.90
2022-12-17T04:59:53.695Z,5.00
2022-12-17T05:06:14.579Z,5.00
2022-12-17T05:12:35.578Z,5.00
2022-12-17T05:18:56.300Z,5.10
2022-12-17T05:25:17.403Z,5.10
2022-12-17T05:31:37.984Z,5.20
2022-12-17T05:37:58.684Z,5.20
2022-12-17T05:44:19.762Z,5.30
2022-12-17T05:50:40.808Z,5.30
2022-12-17T05:57:01.493Z,5.40
2022-12-17T06:03:23.542Z,5.40
2022-12-17T06:09:44.407Z,5.40
2022-12-17T06:16:11.097Z,5.60
2022-12-17T06:22:31.826Z,5.60
2022-12-17T06:28:52.729Z,5.80
2022-12-17T06:35:13.630Z,5.90
2022-12-17T06:41:34.598Z,6.00
2022-12-17T06:47:55.307Z,6.20
2022-12-17T06:54:16.706Z,6.40
2022-12-17T07:00:37.568Z,6.70
2022-12-17T07:07:17.906Z,7.00
2022-12-17T07:13:38.916Z,7.50
2022-12-17T07:19:59.882Z,10.40
2022-12-17T07:26:20.726Z,13.60
2022-12-17T07:32:41.483Z,13.90
2022-12-17T07:39:02.509Z,13.90
2022-12-17T07:45:24.077Z,13.70
2022-12-17T07:51:45.021Z,13.80
2022-12-17T07:58:05.654Z,13.20
2022-12-17T08:04:26.814Z,13.30
2022-12-17T08:10:47.740Z,13.00
2022-12-17T08:17:08.385Z,12.50
2022-12-17T08:23:29.394Z,13.00
2022-12-17T08:29:50.216Z,14.70
2022-12-17T08:36:14.998Z,15.30
2022-12-17T08:42:36.740Z,15.00
2022-12-17T08:48:57.992Z,15.60
2022-12-17T08:55:18.817Z,15.80
2022-12-17T09:01:39.529Z,16.20
2022-12-17T09:08:00.560Z,16.40
2022-12-17T09:14:21.346Z,16.10
2022-12-17T09:20:42.482Z,15.90
2022-12-17T09:27:03.403Z,16.00
2022-12-17T09:33:24.193Z,15.80
2022-12-17T09:39:45.065Z,15.00
2022-12-17T09:46:28.584Z,14.70
2022-12-17T09:52:53.870Z,15.40
2022-12-17T09:59:14.803Z,15.80
2022-12-17T10:05:44.769Z,15.90
2022-12-17T10:12:05.582Z,15.70
2022-12-17T10:18:29.911Z,15.60
2022-12-17T10:24:50.650Z,15.90
2022-12-17T10:31:19.122Z,15.90
2022-12-17T10:37:40.779Z,16.60
2022-12-17T10:44:02.075Z,16.60
2022-12-17T10:50:29.431Z,16.30
2022-12-17T10:56:50.377Z,16.20
2022-12-17T11:03:11.502Z,16.50
2022-12-17T11:09:41.345Z,16.60
2022-12-17T11:16:11.035Z,16.00
2022-12-17T11:22:43.867Z,15.80
2022-12-17T11:29:04.744Z,15.80
2022-12-17T11:35:59.357Z,16.10
2022-12-17T11:42:37.779Z,16.10
2022-12-17T11:49:05.240Z,17.50
2022-12-17T11:55:45.794Z,17.30
2022-12-17T12:02:22.459Z,17.10
2022-12-17T12:08:46.705Z,16.60
2022-12-17T12:15:43.140Z,16.50
2022-12-17T12:22:30.890Z,15.90
2022-12-17T12:28:54.726Z,15.50
2022-12-17T12:35:18.171Z,14.80
2022-12-17T12:41:47.881Z,14.20
2022-12-17T12:48:18.327Z,13.80
2022-12-17T12:55:05.365Z,12.80
2022-12-17T13:01:26.192Z,12.40
2022-12-17T13:07:30.310Z,11.90
2022-12-17T13:13:40.243Z,11.50
2022-12-17T13:19:44.495Z,11.10
2022-12-17T13:25:46.700Z,10.90
2022-12-17T13:32:15.083Z,10.80
2022-12-17T13:38:27.173Z,10.80
2022-12-17T13:44:44.187Z,10.50
2022-12-17T13:50:55.263Z,10.50
2022-12-17T13:57:11.363Z,10.40
2022-12-17T14:03:13.788Z,10.30
2022-12-17T14:09:18.956Z,10.20
2022-12-17T14:15:26.931Z,10.10
2022-12-17T14:21:29.801Z,10.10
2022-12-17T14:27:36.798Z,9.90
2022-12-17T14:33:39.400Z,9.70
2022-12-17T14:39:45.873Z,9.60
2022-12-17T14:46:17.448Z,9.50
2022-12-17T14:52:32.902Z,9.30
2022-12-17T14:58:46.090Z,9.20
2022-12-17T15:04:48.319Z,9.10
2022-12-17T15:10:50.710Z,9.00
2022-12-17T15:16:53.137Z,8.90
2022-12-17T15:22:55.460Z,8.90
2022-12-17T15:28:57.667Z,8.90
2022-12-17T15:35:00.141Z,8.90
2022-12-17T15:41:23.619Z,8.90
2022-12-17T15:47:25.861Z,8.90
2022-12-17T15:53:27.894Z,9.00
2022-12-17T15:59:30.245Z,9.10
2022-12-17T16:05:32.615Z,9.20
2022-12-17T16:11:35.202Z,9.30
2022-12-17T16:17:37.660Z,9.30
2022-12-17T16:23:40.116Z,9.30
2022-12-17T16:29:42.418Z,9.30
2022-12-17T16:35:51.621Z,9.30
2022-12-17T16:41:54.057Z,9.20
2022-12-17T16:47:56.601Z,9.20
2022-12-17T16:53:59.434Z,9.30
2022-12-17T17:00:01.876Z,9.50
2022-12-17T17:06:05.245Z,9.50
2022-12-17T17:12:09.347Z,9.60
2022-12-17T17:18:11.514Z,9.60
2022-12-17T17:24:21.711Z,9.60
2022-12-17T17:30:24.437Z,9.50
2022-12-17T17:36:31.398Z,9.60
2022-12-17T17:42:34.012Z,9.50
2022-12-17T17:48:37.125Z,9.30
2022-12-17T17:54:42.480Z,9.10
2022-12-17T18:00:44.852Z,8.90
2022-12-17T18:07:23.062Z,8.80
2022-12-17T18:13:29.323Z,8.80
2022-12-17T18:19:31.581Z,8.80
2022-12-17T18:25:37.651Z,8.80
2022-12-17T18:31:40.726Z,8.80
2022-12-17T18:37:42.960Z,8.70
2022-12-17T18:43:46.820Z,8.60
2022-12-17T18:49:49.210Z,8.70
2022-12-17T18:55:51.283Z,8.60
2022-12-17T19:01:56.979Z,8.60
2022-12-17T19:07:59.072Z,8.60
2022-12-17T19:14:01.570Z,8.60
2022-12-17T19:20:04.325Z,8.80
2022-12-17T19:26:15.546Z,8.80
2022-12-17T19:32:18.111Z,8.80
2022-12-17T19:38:20.512Z,8.80
2022-12-17T19:44:23.033Z,8.80
2022-12-17T19:50:25.309Z,8.80
2022-12-17T19:56:29.833Z,8.70
2022-12-17T20:02:33.230Z,8.80
2022-12-17T20:08:36.179Z,8.70
2022-12-17T20:14:38.686Z,8.70
2022-12-17T20:20:41.198Z,8.70
2022-12-17T20:26:44.198Z,8.70
2022-12-17T20:32:46.745Z,8.70
2022-12-17T20:38:49.193Z,8.60
2022-12-17T20:44:53.536Z,8.60
2022-12-17T20:50:56.064Z,8.60
2022-12-17T20:56:58.378Z,8.50
2022-12-17T21:03:00.856Z,8.30
2022-12-17T21:09:03.271Z,8.20
2022-12-17T21:15:05.844Z,8.10
2022-12-17T21:21:11.195Z,8.00
2022-12-17T21:27:15.095Z,7.80
2022-12-17T21:33:17.617Z,7.60
2022-12-17T21:39:21.587Z,7.30
2022-12-17T21:45:24.012Z,7.10
2022-12-17T21:51:27.026Z,6.90
2022-12-17T21:57:30.708Z,6.70
2022-12-17T22:03:33.003Z,6.50
2022-12-17T22:09:53.901Z,6.40
2022-12-17T22:15:57.608Z,6.30
2022-12-17T22:22:00.394Z,6.30
2022-12-17T22:28:02.819Z,6.30
2022-12-17T22:34:35.777Z,6.40
2022-12-17T22:44:35.059Z,6.50
2022-12-17T22:46:52.073Z,6.50
2022-12-17T22:52:54.282Z,6.50
2022-12-17T22:58:57.758Z,6.20
2022-12-17T23:05:00.123Z,6.10
2022-12-17T23:11:14.301Z,5.90
2022-12-17T23:17:16.556Z,5.70
2022-12-17T23:23:18.783Z,5.60
2022-12-17T23:29:20.999Z,5.50
2022-12-17T23:35:23.420Z,5.40
2022-12-17T23:41:29.932Z,5.20
2022-12-17T23:47:32.371Z,5.20
2022-12-17T23:53:35.022Z,5.20
2022-12-17T23:59:37.351Z,5.10
